Lowlands Queen — 3FTU4 — position and weather

sailwx.info

Track history (hours):
 
Tides and Currents Weather Stations Pressure Air Temp Water Temp Dewpoint Dewpoint Depression Visibility Wind Speed Wind Dir Waves Ship Positions

Lowlands Queen

Last reported at 2015-Apr-08 17:33 UTC. Time now 2015-Apr-19 07:53 UTC.
Position N 28°44' W 014°42'.
Warning: this ship's position is 10 days out of date.

Length 225 m; draft 12.6 m.

Type: Cargo ship. MMSI: 370913000.

Date/timePositionNaut miles runAvg speedWind from/ knotsBaromVisibWave heightAir tempDewpointWater temp
2015-Apr-08 17:33N 28°44' W 014°42'1212.3
2015-Apr-08 16:33N 28°32' W 014°46'1312.8
2015-Apr-08 15:34N 28°20' W 014°50'1313.1
2015-Apr-08 14:33N 28°08' W 014°55'1312.7
2015-Apr-08 13:33N 27°56' W 015°00'1312.9
2015-Apr-08 12:33N 27°44' W 015°05'1312.8
2015-Apr-08 11:31N 27°31' W 015°11'  
2015-Apr-04 09:10N 10°30' W 014°43'7 8.6
2015-Apr-04 08:24N 10°35' W 014°39'16 0.5
2015-Apr-03 00:09N 10°20' W 014°46'5 6.5
2015-Apr-02 23:26N 10°18' W 014°50'1011.2
2015-Apr-02 22:34N 10°14' W 014°59'1413.8
2015-Apr-02 21:33N 10°08' W 015°12'1413.6
2015-Apr-02 20:33N 10°04' W 015°25'1414.4
2015-Apr-02 19:33N 10°04' W 015°40'1614.6
2015-Apr-02 18:27N 10°04' W 015°56'1714.5
2015-Apr-02 17:17N 10°04' W 016°13'1114.4
2015-Apr-02 16:33N 10°04' W 016°24'1313.4
2015-Apr-02 15:34N 10°06' W 016°37'45013.9
2015-Apr-01 07:07N 17°29' W 018°00'8614.6
2015-Apr-01 01:13N 18°55' W 017°60'2614.4
2015-Mar-31 23:23N 19°21' W 018°01'1514.4
2015-Mar-31 22:20N 19°36' W 018°00'2514.2
2015-Mar-31 20:33N 20°02' W 017°60'1414.1
2015-Mar-31 19:33N 20°16' W 017°60'1414.3
2015-Mar-31 18:33N 20°30' W 017°60'1414.1
2015-Mar-31 17:33N 20°44' W 018°00'1514.8
2015-Mar-31 16:33N 20°59' W 017°59'1514.5
2015-Mar-31 15:33N 21°13' W 017°54'1414.4
2015-Mar-31 14:33N 21°26' W 017°49'1414.1
2015-Mar-31 13:33N 21°39' W 017°44'1414.5
2015-Mar-31 12:33N 21°53' W 017°38'1514.7
2015-Mar-31 11:33N 22°07' W 017°33'1414.4
2015-Mar-31 10:33N 22°20' W 017°28'1414.4
2015-Mar-31 09:33N 22°34' W 017°23'1414.2
2015-Mar-31 08:33N 22°47' W 017°18'1414.3
2015-Mar-31 07:33N 23°01' W 017°12'1514.4
2015-Mar-31 06:32N 23°15' W 017°07'1414.3
2015-Mar-31 05:33N 23°28' W 017°02'1414.4
2015-Mar-31 04:33N 23°41' W 016°56'1514.7
2015-Mar-31 03:33N 23°55' W 016°51'1614.6
2015-Mar-31 02:27N 24°10' W 016°45'7114.2
2015-Mar-30 21:29N 25°17' W 016°18'1313.8
2015-Mar-30 20:33N 25°27' W 016°10'1414.1
2015-Mar-30 19:32N 25°38' W 015°59'4214.2
2015-Mar-30 16:33N 26°10' W 015°28'8714.3
2015-Mar-30 10:29N 27°14' W 014°24'1314.0
2015-Mar-30 09:33N 27°24' W 014°14'1814.2
2015-Mar-30 08:18N 27°37' W 014°00'1114.3
2015-Mar-30 07:33N 27°45' W 013°52'1514.5
2015-Mar-30 06:31N 27°56' W 013°41'1414.3
2015-Mar-30 05:32N 28°07' W 013°30'2014.1
2015-Mar-30 04:09N 28°21' W 013°16'1213.8
2015-Mar-30 03:17N 28°30' W 013°07'1013.9
2015-Mar-30 02:33N 28°38' W 012°59'1414.0
2015-Mar-30 01:33N 28°48' W 012°48'1413.9
2015-Mar-30 00:33N 28°59' W 012°38'1413.8
2015-Mar-29 23:33N 29°10' W 012°28'1413.8
2015-Mar-29 22:33N 29°21' W 012°20'  
Track history (hours):
 
Tides and Currents Weather Stations Pressure Air Temp Water Temp Dewpoint Dewpoint Depression Visibility Wind Speed Wind Dir Waves Ship Positions

Lowlands Queen

Last reported at 2015-Apr-08 17:33 UTC. Time now 2015-Apr-19 07:53 UTC.
Position N 28°44' W 014°42'.
Warning: this ship's position is 10 days out of date.

Length 225 m; draft 12.6 m.

Type: Cargo ship. MMSI: 370913000.

Date/timePositionNaut miles runAvg speedWind from/ knotsBaromVisibWave heightAir tempDewpointWater temp
2015-Apr-08 17:33N 28°44' W 014°42'1212.3
2015-Apr-08 16:33N 28°32' W 014°46'1312.8
2015-Apr-08 15:34N 28°20' W 014°50'1313.1
2015-Apr-08 14:33N 28°08' W 014°55'1312.7
2015-Apr-08 13:33N 27°56' W 015°00'1312.9
2015-Apr-08 12:33N 27°44' W 015°05'1312.8
2015-Apr-08 11:31N 27°31' W 015°11'  
2015-Apr-04 09:10N 10°30' W 014°43'7 8.6
2015-Apr-04 08:24N 10°35' W 014°39'16 0.5
2015-Apr-03 00:09N 10°20' W 014°46'5 6.5
2015-Apr-02 23:26N 10°18' W 014°50'1011.2
2015-Apr-02 22:34N 10°14' W 014°59'1413.8
2015-Apr-02 21:33N 10°08' W 015°12'1413.6
2015-Apr-02 20:33N 10°04' W 015°25'1414.4
2015-Apr-02 19:33N 10°04' W 015°40'1614.6
2015-Apr-02 18:27N 10°04' W 015°56'1714.5
2015-Apr-02 17:17N 10°04' W 016°13'1114.4
2015-Apr-02 16:33N 10°04' W 016°24'1313.4
2015-Apr-02 15:34N 10°06' W 016°37'45013.9
2015-Apr-01 07:07N 17°29' W 018°00'8614.6
2015-Apr-01 01:13N 18°55' W 017°60'2614.4
2015-Mar-31 23:23N 19°21' W 018°01'1514.4
2015-Mar-31 22:20N 19°36' W 018°00'2514.2
2015-Mar-31 20:33N 20°02' W 017°60'1414.1
2015-Mar-31 19:33N 20°16' W 017°60'1414.3
2015-Mar-31 18:33N 20°30' W 017°60'1414.1
2015-Mar-31 17:33N 20°44' W 018°00'1514.8
2015-Mar-31 16:33N 20°59' W 017°59'1514.5
2015-Mar-31 15:33N 21°13' W 017°54'1414.4
2015-Mar-31 14:33N 21°26' W 017°49'1414.1
2015-Mar-31 13:33N 21°39' W 017°44'1414.5
2015-Mar-31 12:33N 21°53' W 017°38'1514.7
2015-Mar-31 11:33N 22°07' W 017°33'1414.4
2015-Mar-31 10:33N 22°20' W 017°28'1414.4
2015-Mar-31 09:33N 22°34' W 017°23'1414.2
2015-Mar-31 08:33N 22°47' W 017°18'1414.3
2015-Mar-31 07:33N 23°01' W 017°12'1514.4
2015-Mar-31 06:32N 23°15' W 017°07'1414.3
2015-Mar-31 05:33N 23°28' W 017°02'1414.4
2015-Mar-31 04:33N 23°41' W 016°56'1514.7
2015-Mar-31 03:33N 23°55' W 016°51'1614.6
2015-Mar-31 02:27N 24°10' W 016°45'7114.2
2015-Mar-30 21:29N 25°17' W 016°18'1313.8
2015-Mar-30 20:33N 25°27' W 016°10'1414.1
2015-Mar-30 19:32N 25°38' W 015°59'4214.2
2015-Mar-30 16:33N 26°10' W 015°28'8714.3
2015-Mar-30 10:29N 27°14' W 014°24'1314.0
2015-Mar-30 09:33N 27°24' W 014°14'1814.2
2015-Mar-30 08:18N 27°37' W 014°00'1114.3
2015-Mar-30 07:33N 27°45' W 013°52'1514.5
2015-Mar-30 06:31N 27°56' W 013°41'1414.3
2015-Mar-30 05:32N 28°07' W 013°30'2014.1
2015-Mar-30 04:09N 28°21' W 013°16'1213.8
2015-Mar-30 03:17N 28°30' W 013°07'1013.9
2015-Mar-30 02:33N 28°38' W 012°59'1414.0
2015-Mar-30 01:33N 28°48' W 012°48'1413.9
2015-Mar-30 00:33N 28°59' W 012°38'1413.8
2015-Mar-29 23:33N 29°10' W 012°28'1413.8
2015-Mar-29 22:33N 29°21' W 012°20'  

Dump ship's entire track history